createdAt,value
2023-03-01T00:00:05.098Z,18.2
2023-03-01T00:05:05.100Z,18.1
2023-03-01T00:10:05.090Z,18.8
2023-03-01T00:15:05.098Z,17.9
2023-03-01T00:20:05.092Z,18.1
2023-03-01T00:25:05.092Z,18.1
2023-03-01T00:30:05.101Z,17.8
2023-03-01T00:35:05.106Z,18.1
2023-03-01T00:40:05.105Z,18.1
2023-03-01T00:45:05.106Z,17.9
2023-03-01T00:50:05.095Z,17.7
2023-03-01T00:55:05.146Z,17.7
2023-03-01T01:00:05.109Z,19.2
2023-03-01T01:05:05.111Z,17.9
2023-03-01T01:10:05.107Z,19.2
2023-03-01T01:15:05.099Z,18.2
2023-03-01T01:20:05.102Z,18.2
2023-03-01T01:25:05.105Z,18.2
2023-03-01T01:30:05.091Z,18.3
2023-03-01T01:35:05.137Z,18
2023-03-01T01:40:05.126Z,18.4
2023-03-01T01:45:05.112Z,18.7
2023-03-01T01:50:05.102Z,18.3
2023-03-01T01:55:05.098Z,18.3
2023-03-01T02:00:05.112Z,18.1
2023-03-01T02:05:05.102Z,18.4
2023-03-01T02:10:05.094Z,18.4
2023-03-01T02:15:05.096Z,18.1
2023-03-01T02:20:05.098Z,18.5
2023-03-01T02:25:05.098Z,18.5
2023-03-01T02:30:05.103Z,18.6
2023-03-01T02:35:05.102Z,18.1
2023-03-01T02:40:05.097Z,18.4
2023-03-01T02:45:05.110Z,18.1
2023-03-01T02:50:05.105Z,19.3
2023-03-01T02:55:05.138Z,19.3
2023-03-01T03:00:05.099Z,18.5
2023-03-01T03:05:05.109Z,18.5
2023-03-01T03:10:05.099Z,19.3
2023-03-01T03:15:05.097Z,17.6
2023-03-01T03:20:05.106Z,18.5
2023-03-01T03:25:05.097Z,18.5
2023-03-01T03:30:05.093Z,18.1
2023-03-01T03:35:05.099Z,18.1
2023-03-01T03:40:05.093Z,18.9
2023-03-01T03:45:05.109Z,18.2
2023-03-01T03:50:05.110Z,17.9
2023-03-01T03:55:05.105Z,17.9
2023-03-01T04:00:05.114Z,18.6
2023-03-01T04:05:05.171Z,17.5
2023-03-01T04:10:05.111Z,18.3
2023-03-01T04:15:05.097Z,17.6
2023-03-01T04:20:05.102Z,18.2
2023-03-01T04:25:05.106Z,18.2
2023-03-01T04:30:05.113Z,18
2023-03-01T04:35:05.100Z,18.1
2023-03-01T04:40:05.093Z,17.6
2023-03-01T04:45:05.102Z,17.7
2023-03-01T04:50:05.096Z,17.8
2023-03-01T04:55:05.103Z,17.8
2023-03-01T05:00:05.097Z,18.6
2023-03-01T05:05:05.107Z,18.5
2023-03-01T05:10:05.103Z,17.9
2023-03-01T05:15:05.095Z,18.2
2023-03-01T05:20:05.092Z,17.5
2023-03-01T05:25:05.097Z,17.5
2023-03-01T05:30:05.098Z,17.3
2023-03-01T05:35:05.108Z,16.8
2023-03-01T05:40:05.100Z,18.1
2023-03-01T05:45:05.103Z,18.4
2023-03-01T05:50:05.107Z,18.6
2023-03-01T05:55:05.103Z,18.6
2023-03-01T06:00:05.104Z,18.2
2023-03-01T06:05:05.230Z,18.2
2023-03-01T06:10:05.100Z,18.5
2023-03-01T06:15:05.111Z,19.1
2023-03-01T06:20:05.103Z,18.4
2023-03-01T06:25:05.105Z,18.4
2023-03-01T06:30:05.117Z,17.1
2023-03-01T06:35:05.111Z,17.6
2023-03-01T06:40:05.099Z,17.6
2023-03-01T06:45:05.175Z,16.7
2023-03-01T06:50:05.103Z,17.3
2023-03-01T06:55:05.103Z,17.3
2023-03-01T07:00:05.097Z,17.3
2023-03-01T07:05:05.153Z,17.6
2023-03-01T07:10:05.131Z,17.8
2023-03-01T07:15:05.157Z,17.6
2023-03-01T07:20:05.104Z,18
2023-03-01T07:25:05.101Z,18
2023-03-01T07:30:05.098Z,19.5
2023-03-01T07:35:05.154Z,18.7
2023-03-01T07:40:05.105Z,19.6
2023-03-01T07:45:05.105Z,19
2023-03-01T07:50:05.104Z,19.5
2023-03-01T07:55:05.110Z,19.5
2023-03-01T08:00:05.106Z,20.1
2023-03-01T08:05:05.113Z,20.3
2023-03-01T08:10:05.097Z,20.6
2023-03-01T08:15:05.096Z,20.8
2023-03-01T08:20:05.095Z,20.7
2023-03-01T08:25:05.094Z,20.7
2023-03-01T08:30:05.097Z,20.9
2023-03-01T08:35:05.111Z,21.3
2023-03-01T08:40:05.109Z,21.1
2023-03-01T08:45:05.112Z,21.1
2023-03-01T08:50:05.100Z,21.4
2023-03-01T08:55:05.105Z,21.4
2023-03-01T09:00:05.102Z,22.6
2023-03-01T09:05:05.102Z,21.8
2023-03-01T09:10:05.097Z,22.9
2023-03-01T09:15:05.104Z,22.7
2023-03-01T09:20:05.107Z,22.1
2023-03-01T09:25:05.117Z,22.1
2023-03-01T09:30:05.176Z,22.6
2023-03-01T09:35:05.105Z,23
2023-03-01T09:40:05.111Z,22.9
2023-03-01T09:45:05.118Z,20.6
2023-03-01T09:50:05.139Z,20.8
2023-03-01T09:55:05.110Z,20.8
2023-03-01T10:00:05.109Z,19.8
2023-03-01T10:05:05.128Z,19
2023-03-01T10:10:05.110Z,18.9
2023-03-01T10:15:05.107Z,19.7
2023-03-01T10:20:05.105Z,18.8
2023-03-01T10:25:05.110Z,18.8
2023-03-01T10:30:05.097Z,18.8
2023-03-01T10:35:05.108Z,18.4
2023-03-01T10:40:05.105Z,18.5
2023-03-01T10:45:05.104Z,17.9
2023-03-01T10:50:05.110Z,18.1
2023-03-01T10:55:05.104Z,18.1
2023-03-01T11:00:05.156Z,17.8
2023-03-01T11:05:05.186Z,17.3
2023-03-01T11:10:05.104Z,17.9
2023-03-01T11:15:05.126Z,17.5
2023-03-01T11:20:05.095Z,18.6
2023-03-01T11:25:10.212Z,18.6
2023-03-01T11:30:05.097Z,18.2
2023-03-01T11:35:05.113Z,18.3
2023-03-01T11:40:05.103Z,17.4
2023-03-01T11:45:05.095Z,17.6
2023-03-01T11:50:05.093Z,17.8
2023-03-01T11:55:05.113Z,17.8
2023-03-01T12:00:05.094Z,18.7
2023-03-01T12:05:05.100Z,18
2023-03-01T12:10:05.125Z,18.4
2023-03-01T12:15:05.109Z,18.5
2023-03-01T12:20:05.102Z,18.3
2023-03-01T12:25:05.106Z,18.3
2023-03-01T12:30:05.098Z,18.7
2023-03-01T12:35:05.166Z,18.7
2023-03-01T12:40:05.102Z,18.2
2023-03-01T12:45:05.099Z,18
2023-03-01T12:50:05.115Z,17.1
2023-03-01T12:55:05.100Z,17.1
2023-03-01T13:00:05.116Z,18.7
2023-03-01T13:05:05.102Z,17.7
2023-03-01T13:10:05.105Z,18
2023-03-01T13:15:05.102Z,17.7
2023-03-01T13:20:05.125Z,17.5
2023-03-01T13:25:05.099Z,17.5
2023-03-01T13:30:05.096Z,17.9
2023-03-01T13:35:05.111Z,18.8
2023-03-01T13:40:05.093Z,17.6
2023-03-01T13:45:05.109Z,16.9
2023-03-01T13:50:05.104Z,17.2
2023-03-01T13:55:05.109Z,17.2
2023-03-01T14:00:05.100Z,16.8
2023-03-01T14:05:05.113Z,17.6
2023-03-01T14:10:05.106Z,16.7
2023-03-01T14:15:05.111Z,16.7
2023-03-01T14:20:05.098Z,16.6
2023-03-01T14:25:05.107Z,16.6
2023-03-01T14:30:05.097Z,16.6
2023-03-01T14:35:05.115Z,16.7
2023-03-01T14:40:05.111Z,15.7
2023-03-01T14:45:05.099Z,16.3
2023-03-01T14:50:05.138Z,16.4
2023-03-01T14:55:05.112Z,16.4
2023-03-01T15:00:05.107Z,15.3
2023-03-01T15:05:07.307Z,16.3
2023-03-01T15:10:05.100Z,16.7
2023-03-01T15:15:05.106Z,16.1
2023-03-01T15:20:05.107Z,15.8
2023-03-01T15:25:05.094Z,15.8
2023-03-01T15:30:05.093Z,16
2023-03-01T15:35:05.099Z,15.9
2023-03-01T15:40:05.104Z,15.5
2023-03-01T15:45:05.108Z,16.7
2023-03-01T15:50:05.097Z,16.5
2023-03-01T15:55:05.115Z,16.5
2023-03-01T16:00:05.111Z,16.1
2023-03-01T16:05:05.104Z,17.1
2023-03-01T16:10:05.106Z,17.1
2023-03-01T16:15:05.108Z,17.4
2023-03-01T16:20:05.097Z,16.4
2023-03-01T16:25:05.106Z,16.4
2023-03-01T16:30:05.101Z,16.6
2023-03-01T16:35:05.103Z,17.3
2023-03-01T16:40:05.100Z,16.5
2023-03-01T16:45:07.214Z,17.7
2023-03-01T16:50:05.105Z,17.9
2023-03-01T16:55:05.100Z,17.9
2023-03-01T17:00:05.098Z,18.4
2023-03-01T17:05:05.109Z,17.8
2023-03-01T17:10:05.113Z,17.8
2023-03-01T17:15:05.112Z,18
2023-03-01T17:20:05.126Z,18.5
2023-03-01T17:25:05.106Z,18.5
2023-03-01T17:30:05.102Z,17.6
2023-03-01T17:35:05.103Z,17.9
2023-03-01T17:40:05.103Z,17.9
2023-03-01T17:45:05.114Z,18.7
2023-03-01T17:50:05.156Z,18.3
2023-03-01T17:55:05.104Z,18.3
2023-03-01T18:00:05.096Z,19.2
2023-03-01T18:05:05.104Z,19.2
2023-03-01T18:10:05.117Z,18.7
2023-03-01T18:15:05.099Z,17.3
2023-03-01T18:20:05.107Z,18.7
2023-03-01T18:25:05.107Z,18.7
2023-03-01T18:30:05.097Z,18.8
2023-03-01T18:35:05.104Z,18.5
2023-03-01T18:40:05.099Z,19
2023-03-01T18:45:05.112Z,19.6
2023-03-01T18:50:05.109Z,18.7
2023-03-01T18:55:05.112Z,18.7
2023-03-01T19:00:05.097Z,18.6
2023-03-01T19:05:05.096Z,19.9
2023-03-01T19:10:05.118Z,18.8
2023-03-01T19:15:05.112Z,19.2
2023-03-01T19:20:05.110Z,19.9
2023-03-01T19:25:05.102Z,19.9
2023-03-01T19:30:05.104Z,18.6
2023-03-01T19:35:05.144Z,19.8
2023-03-01T19:40:05.108Z,20.1
2023-03-01T19:45:05.116Z,20.5
2023-03-01T19:50:05.098Z,20.2
2023-03-01T19:55:09.633Z,20.2
2023-03-01T20:00:05.102Z,20.8
2023-03-01T20:05:05.093Z,20.2
2023-03-01T20:10:05.107Z,19.5
2023-03-01T20:15:05.111Z,19.8
2023-03-01T20:20:05.125Z,20
2023-03-01T20:25:05.125Z,20
2023-03-01T20:30:05.099Z,19.2
2023-03-01T20:35:05.096Z,19.6
2023-03-01T20:40:05.105Z,20
2023-03-01T20:45:05.107Z,19.6
2023-03-01T20:50:05.099Z,21
2023-03-01T20:55:05.107Z,21
2023-03-01T21:00:05.103Z,22.4
2023-03-01T21:05:05.107Z,20.3
2023-03-01T21:10:05.206Z,21.5
2023-03-01T21:15:05.136Z,19.8
2023-03-01T21:20:05.103Z,20.2
2023-03-01T21:25:05.111Z,20.2
2023-03-01T21:30:05.113Z,19.8
2023-03-01T21:35:05.116Z,21
2023-03-01T21:40:05.108Z,21.1
2023-03-01T21:45:05.125Z,21.2
2023-03-01T21:50:05.114Z,20.6
2023-03-01T21:55:05.117Z,20.6
2023-03-01T22:00:05.092Z,20.9
2023-03-01T22:05:05.098Z,20.5
2023-03-01T22:10:05.086Z,21.1
2023-03-01T22:15:05.099Z,20.7
2023-03-01T22:20:05.092Z,21.1
2023-03-01T22:25:05.153Z,21.1
2023-03-01T22:30:05.095Z,20.8
2023-03-01T22:35:05.101Z,21.8
2023-03-01T22:40:05.097Z,21.4
2023-03-01T22:45:05.114Z,22.1
2023-03-01T22:50:05.089Z,21.9
2023-03-01T22:55:05.101Z,21.9
2023-03-01T23:00:05.115Z,22.6
2023-03-01T23:05:05.101Z,23.2
2023-03-01T23:10:05.100Z,22
2023-03-01T23:15:05.107Z,22
2023-03-01T23:20:05.099Z,21.8
2023-03-01T23:25:05.136Z,21.8
2023-03-01T23:30:05.132Z,20.9
2023-03-01T23:35:05.139Z,21.3
2023-03-01T23:40:05.100Z,20.9
2023-03-01T23:45:05.092Z,22.1
2023-03-01T23:50:05.098Z,21.9
2023-03-01T23:55:05.095Z,21.9
